Time;durP1;ratioP1;P1;durP2;ratioP2;P2;SDS_P1;SDS_P2;PMS_P1;PMS_P2;Temp;Humidity;BMP_temperature;BMP_pressure;BME280_temperature;BME280_humidity;BME280_pressure;Samples;Min_cycle;Max_cycle;Signal;HPM_P1;HPM_P2
2023/12/06 00:00:41;;;;;;;31.15;12.57;;;3.10;99.90;;;;;;6153860;23;20340;-57
2023/12/06 00:03:07;;;;;;;33.63;12.98;;;3.10;99.90;;;;;;6179526;23;20017;-55
2023/12/06 00:05:32;;;;;;;30.02;13.02;;;3.10;99.90;;;;;;6180200;23;20005;-57
2023/12/06 00:07:58;;;;;;;27.48;12.43;;;3.00;99.90;;;;;;6179202;23;20086;-55
2023/12/06 00:10:24;;;;;;;33.70;14.40;;;3.10;99.90;;;;;;6179764;23;20001;-55
2023/12/06 00:12:49;;;;;;;32.10;13.80;;;3.00;99.90;;;;;;6179936;23;20001;-55
2023/12/06 00:15:15;;;;;;;33.35;13.38;;;3.00;99.90;;;;;;6179747;23;20312;-55
2023/12/06 00:17:41;;;;;;;28.63;13.10;;;3.00;99.90;;;;;;6179324;23;20010;-55
2023/12/06 00:20:07;;;;;;;31.58;13.90;;;3.00;99.90;;;;;;6178676;23;20120;-59
2023/12/06 00:22:33;;;;;;;29.98;12.82;;;2.90;99.90;;;;;;6178631;22;20006;-57
2023/12/06 00:24:58;;;;;;;31.30;13.00;;;3.00;99.90;;;;;;6177905;23;20029;-58
2023/12/06 00:27:24;;;;;;;35.97;12.98;;;3.00;99.90;;;;;;6152192;23;20424;-59
2023/12/06 00:29:50;;;;;;;28.80;11.93;;;3.00;99.90;;;;;;6178052;23;20005;-58
2023/12/06 00:32:15;;;;;;;32.00;12.52;;;3.00;99.90;;;;;;6178094;23;20088;-57
2023/12/06 00:34:41;;;;;;;28.55;12.23;;;3.00;99.90;;;;;;6178137;23;20010;-57
2023/12/06 00:37:06;;;;;;;32.58;13.45;;;3.00;99.90;;;;;;6177504;23;20012;-57
2023/12/06 00:39:32;;;;;;;33.03;12.60;;;3.00;99.90;;;;;;6178001;23;20028;-57
2023/12/06 00:41:59;;;;;;;22.88;12.70;;;2.90;99.90;;;;;;6178396;23;20001;-58
2023/12/06 00:44:24;;;;;;;29.75;13.07;;;2.90;99.90;;;;;;6152547;23;20005;-58
2023/12/06 00:46:50;;;;;;;25.98;11.77;;;2.90;99.90;;;;;;6178344;23;20009;-55
2023/12/06 00:49:18;;;;;;;24.65;12.05;;;2.80;99.90;;;;;;6177915;23;20001;-55
2023/12/06 00:51:43;;;;;;;28.60;11.23;;;2.80;99.90;;;;;;6177875;23;20375;-56
2023/12/06 00:54:09;;;;;;;23.13;10.82;;;2.80;99.90;;;;;;6178146;23;20001;-55
2023/12/06 00:56:34;;;;;;;22.85;10.65;;;2.80;99.90;;;;;;6178573;23;20005;-59
2023/12/06 00:59:00;;;;;;;24.27;10.90;;;2.70;99.90;;;;;;6178306;23;20009;-58
2023/12/06 01:01:26;;;;;;;23.65;10.20;;;2.70;99.90;;;;;;6179943;23;20001;-59
2023/12/06 01:03:51;;;;;;;24.88;10.68;;;2.60;99.90;;;;;;6178643;23;20596;-55
2023/12/06 01:06:17;;;;;;;24.38;10.70;;;2.60;99.90;;;;;;6179220;23;20005;-59
2023/12/06 01:08:43;;;;;;;18.67;9.48;;;2.60;99.90;;;;;;6180060;23;20409;-59
2023/12/06 01:11:08;;;;;;;21.20;10.05;;;2.50;99.90;;;;;;6179411;23;20446;-58
2023/12/06 01:13:34;;;;;;;20.77;9.52;;;2.50;99.90;;;;;;6179399;23;20029;-57
2023/12/06 01:16:00;;;;;;;21.85;10.75;;;2.50;99.90;;;;;;6179208;23;20031;-58
2023/12/06 01:18:25;;;;;;;20.23;9.32;;;2.50;99.90;;;;;;6179332;23;20321;-61
2023/12/06 01:20:51;;;;;;;21.27;10.43;;;2.50;99.90;;;;;;6179403;23;20009;-57
2023/12/06 01:23:16;;;;;;;21.17;9.57;;;2.50;99.90;;;;;;6179241;23;20005;-55
2023/12/06 01:25:42;;;;;;;19.80;9.40;;;2.40;99.90;;;;;;6179887;23;20335;-56
2023/12/06 01:28:08;;;;;;;16.15;8.43;;;2.40;99.90;;;;;;6179034;23;20005;-58
2023/12/06 01:30:33;;;;;;;18.60;9.15;;;2.40;99.90;;;;;;6178755;23;20001;-59
2023/12/06 01:33:00;;;;;;;17.63;8.68;;;2.40;99.90;;;;;;6152772;23;20009;-59
2023/12/06 01:35:26;;;;;;;19.63;9.55;;;2.40;99.90;;;;;;6153299;22;20356;-55
2023/12/06 01:37:51;;;;;;;19.02;9.95;;;2.40;99.90;;;;;;6179413;23;19997;-55
2023/12/06 01:40:17;;;;;;;20.30;9.63;;;2.40;99.90;;;;;;6176455;23;20001;-58
2023/12/06 01:42:45;;;;;;;19.25;9.25;;;2.40;99.90;;;;;;6179923;23;20008;-57
2023/12/06 01:45:11;;;;;;;24.75;9.95;;;2.40;99.90;;;;;;6179250;23;20005;-59
2023/12/06 01:47:38;;;;;;;21.30;10.52;;;2.30;99.90;;;;;;6178969;23;20031;-56
2023/12/06 01:50:04;;;;;;;21.70;9.63;;;2.30;99.90;;;;;;6178815;23;19997;-60
2023/12/06 01:52:30;;;;;;;27.60;11.45;;;2.20;99.90;;;;;;6179344;23;19997;-55
2023/12/06 01:54:58;;;;;;;26.58;11.10;;;2.20;99.90;;;;;;6179446;23;20066;-57
2023/12/06 01:57:26;;;;;;;25.55;12.23;;;2.20;99.90;;;;;;6179000;23;19997;-58
2023/12/06 01:59:53;;;;;;;27.48;12.70;;;2.30;99.90;;;;;;6178457;23;20005;-54
2023/12/06 02:02:19;;;;;;;28.60;12.57;;;2.20;99.90;;;;;;6178889;23;20009;-58
2023/12/06 02:04:45;;;;;;;27.23;12.57;;;2.20;99.90;;;;;;6179111;23;20001;-57
2023/12/06 02:07:12;;;;;;;33.80;13.68;;;2.20;99.90;;;;;;6178917;23;20013;-58
2023/12/06 02:09:37;;;;;;;27.38;13.32;;;2.20;99.90;;;;;;6179671;23;20005;-59
2023/12/06 02:12:03;;;;;;;29.40;12.23;;;2.20;99.90;;;;;;6178871;23;20020;-58
2023/12/06 02:14:33;;;;;;;25.73;12.90;;;2.20;99.90;;;;;;6178930;23;20011;-59
2023/12/06 02:17:00;;;;;;;25.83;12.73;;;2.20;99.90;;;;;;6179064;23;20123;-58
2023/12/06 02:19:27;;;;;;;31.05;14.30;;;2.20;99.90;;;;;;6178317;23;20009;-54
2023/12/06 02:21:54;;;;;;;32.55;12.95;;;2.20;99.90;;;;;;6177448;23;20002;-55
2023/12/06 02:24:20;;;;;;;29.35;12.68;;;2.10;99.90;;;;;;6179092;23;20349;-56
2023/12/06 02:26:46;;;;;;;27.90;13.15;;;2.10;99.90;;;;;;6179241;23;20019;-56
2023/12/06 02:29:12;;;;;;;31.48;14.48;;;2.10;99.90;;;;;;6178697;23;20070;-59
2023/12/06 02:31:38;;;;;;;30.42;12.88;;;2.10;99.90;;;;;;6179634;23;20429;-56
2023/12/06 02:34:09;;;;;;;37.53;15.32;;;2.10;99.90;;;;;;6179317;23;19997;-58
2023/12/06 02:36:35;;;;;;;41.40;16.45;;;2.10;99.90;;;;;;6178618;23;20088;-57
2023/12/06 02:39:01;;;;;;;33.47;14.57;;;2.10;99.90;;;;;;6178856;23;20002;-58
2023/12/06 02:41:28;;;;;;;37.63;16.17;;;2.10;99.90;;;;;;6179091;23;20013;-58
2023/12/06 02:43:54;;;;;;;40.22;15.65;;;2.10;99.90;;;;;;6179701;23;20005;-58
2023/12/06 02:46:19;;;;;;;36.00;16.23;;;2.10;99.90;;;;;;6178849;23;20005;-57
2023/12/06 02:48:45;;;;;;;45.08;18.60;;;2.00;99.90;;;;;;6179470;23;20005;-57
2023/12/06 02:51:10;;;;;;;40.03;16.73;;;2.00;99.90;;;;;;6178887;23;20007;-59
2023/12/06 02:53:36;;;;;;;41.50;17.08;;;1.90;99.90;;;;;;6152953;23;20009;-56
2023/12/06 02:56:01;;;;;;;40.78;17.40;;;2.00;99.90;;;;;;6179075;23;20314;-57
2023/12/06 02:58:27;;;;;;;39.97;17.90;;;1.90;99.90;;;;;;6178762;23;20001;-56
2023/12/06 03:00:52;;;;;;;36.15;16.05;;;1.90;99.90;;;;;;6151867;23;20019;-58
2023/12/06 03:03:18;;;;;;;38.28;15.73;;;1.90;99.90;;;;;;6178426;23;20013;-56
2023/12/06 03:05:44;;;;;;;44.85;18.05;;;1.90;99.90;;;;;;6178476;23;20005;-56
2023/12/06 03:08:14;;;;;;;36.40;15.38;;;1.90;99.90;;;;;;6177718;23;20008;-59
2023/12/06 03:10:39;;;;;;;44.55;18.15;;;1.90;99.90;;;;;;6178275;23;20317;-54
2023/12/06 03:13:05;;;;;;;42.47;19.52;;;2.00;99.90;;;;;;6152165;23;20009;-56
2023/12/06 03:15:30;;;;;;;46.05;19.20;;;2.00;99.90;;;;;;6178780;23;20001;-56
2023/12/06 03:17:56;;;;;;;58.13;21.23;;;2.00;99.90;;;;;;6178239;23;20174;-58
2023/12/06 03:20:22;;;;;;;60.40;19.92;;;2.00;99.90;;;;;;6151917;23;20344;-55
2023/12/06 03:22:47;;;;;;;56.97;22.95;;;2.00;99.90;;;;;;6178901;23;19997;-58
2023/12/06 03:25:13;;;;;;;61.83;24.25;;;2.00;99.90;;;;;;6178121;23;20009;-59
2023/12/06 03:27:39;;;;;;;54.83;20.85;;;2.00;99.90;;;;;;6178937;23;20009;-58
2023/12/06 03:30:06;;;;;;;61.63;23.48;;;1.90;99.90;;;;;;6152401;23;20028;-57
2023/12/06 03:32:31;;;;;;;61.47;23.77;;;2.00;99.90;;;;;;6178735;23;20032;-58
2023/12/06 03:34:57;;;;;;;62.25;22.42;;;2.00;99.90;;;;;;6179017;23;20425;-58
2023/12/06 03:37:23;;;;;;;52.70;19.80;;;2.00;99.90;;;;;;6178536;23;20084;-57
2023/12/06 03:39:49;;;;;;;51.72;19.95;;;1.90;99.90;;;;;;6178642;23;20084;-59
2023/12/06 03:42:14;;;;;;;54.08;21.33;;;1.90;99.90;;;;;;6178545;23;20051;-57
2023/12/06 03:44:40;;;;;;;45.72;18.73;;;1.80;99.90;;;;;;6178891;23;20051;-56
2023/12/06 03:47:05;;;;;;;57.92;21.50;;;1.80;99.90;;;;;;6178567;23;20004;-58
2023/12/06 03:49:31;;;;;;;53.20;21.15;;;1.80;99.90;;;;;;6177650;23;20016;-57
2023/12/06 03:51:56;;;;;;;61.50;22.83;;;1.80;99.90;;;;;;6178524;23;20500;-56
2023/12/06 03:54:22;;;;;;;66.72;24.48;;;1.70;99.90;;;;;;6152826;23;20064;-54
2023/12/06 03:56:48;;;;;;;69.65;25.80;;;1.80;99.90;;;;;;6178540;23;20005;-56
2023/12/06 03:59:14;;;;;;;67.95;25.05;;;1.70;99.90;;;;;;6151678;23;20005;-58
2023/12/06 04:01:44;;;;;;;69.38;24.73;;;1.70;99.90;;;;;;6178993;23;20005;-58
2023/12/06 04:04:09;;;;;;;76.80;29.15;;;1.70;99.90;;;;;;6178851;23;20009;-58
2023/12/06 04:06:35;;;;;;;63.13;24.58;;;1.70;99.90;;;;;;6178234;23;20405;-57
2023/12/06 04:09:01;;;;;;;68.28;25.40;;;1.70;99.90;;;;;;6178292;23;20012;-56
2023/12/06 04:11:27;;;;;;;65.65;25.90;;;1.70;99.90;;;;;;6178340;23;20031;-58
2023/12/06 04:13:53;;;;;;;60.65;26.05;;;1.70;99.90;;;;;;6179152;23;20008;-56
2023/12/06 04:16:18;;;;;;;70.82;26.60;;;1.60;99.90;;;;;;6178177;23;20009;-57
2023/12/06 04:18:44;;;;;;;62.17;25.83;;;1.60;99.90;;;;;;6178186;23;20016;-55
2023/12/06 04:21:09;;;;;;;60.53;25.35;;;1.60;99.90;;;;;;6178310;23;20464;-60
2023/12/06 04:23:35;;;;;;;64.28;24.45;;;1.60;99.90;;;;;;6178702;23;20009;-58
2023/12/06 04:26:00;;;;;;;60.90;25.92;;;1.50;99.90;;;;;;6178656;23;20028;-59
2023/12/06 04:28:26;;;;;;;54.80;25.02;;;1.50;99.90;;;;;;6177087;23;20005;-58
2023/12/06 04:30:51;;;;;;;60.80;25.20;;;1.50;99.90;;;;;;6178848;23;20310;-57
2023/12/06 04:33:17;;;;;;;54.83;23.23;;;1.60;99.90;;;;;;6178067;23;20063;-55
2023/12/06 04:35:43;;;;;;;53.47;23.05;;;1.60;99.90;;;;;;6179306;23;20001;-60
2023/12/06 04:38:08;;;;;;;65.78;27.92;;;1.50;99.90;;;;;;6153439;23;20484;-59
2023/12/06 04:40:34;;;;;;;70.07;29.08;;;1.50;99.90;;;;;;6179418;23;20011;-55
2023/12/06 04:42:59;;;;;;;50.35;21.73;;;1.50;99.90;;;;;;6180337;23;20062;-59
2023/12/06 04:45:25;;;;;;;71.18;26.30;;;1.40;99.90;;;;;;6179265;23;20337;-55
2023/12/06 04:47:50;;;;;;;61.80;25.88;;;1.40;99.90;;;;;;6179186;23;20083;-57
2023/12/06 04:50:16;;;;;;;473.77;106.88;;;1.40;99.90;;;;;;6179210;23;20005;-56
2023/12/06 04:52:42;;;;;;;123.05;39.97;;;1.50;99.90;;;;;;6179608;23;20005;-58
2023/12/06 04:55:08;;;;;;;60.05;26.75;;;1.50;99.90;;;;;;6179723;23;20439;-55
2023/12/06 04:57:33;;;;;;;52.22;22.95;;;1.50;99.90;;;;;;6179761;23;20001;-57
2023/12/06 04:59:59;;;;;;;60.58;23.58;;;1.50;99.90;;;;;;6179802;23;20005;-58
2023/12/06 05:02:25;;;;;;;52.25;24.60;;;1.40;99.90;;;;;;6179407;23;20005;-57
2023/12/06 05:04:50;;;;;;;53.08;25.85;;;1.40;99.90;;;;;;6179613;23;20001;-57
2023/12/06 05:07:16;;;;;;;55.60;24.38;;;1.50;99.90;;;;;;6178943;23;20025;-57
2023/12/06 05:09:42;;;;;;;56.20;25.90;;;1.50;99.90;;;;;;6153004;23;20001;-55
2023/12/06 05:12:07;;;;;;;52.70;23.38;;;1.50;99.90;;;;;;6179236;23;20001;-55
2023/12/06 05:14:33;;;;;;;55.80;26.90;;;1.60;99.90;;;;;;6179692;23;20007;-58
2023/12/06 05:17:00;;;;;;;55.38;25.75;;;1.60;99.90;;;;;;6179042;23;20001;-59
2023/12/06 05:19:26;;;;;;;53.92;26.08;;;1.60;99.90;;;;;;6179053;23;20020;-84
2023/12/06 05:21:53;;;;;;;53.97;24.63;;;1.60;99.90;;;;;;6162355;23;20020;-85
2023/12/06 05:24:20;;;;;;;56.28;26.38;;;1.60;99.90;;;;;;6161919;23;20036;-85
2023/12/06 05:26:46;;;;;;;57.47;25.77;;;1.60;99.90;;;;;;6162532;23;20012;-84
2023/12/06 05:29:11;;;;;;;57.85;25.65;;;1.60;99.90;;;;;;6163359;23;20017;-85
2023/12/06 05:31:37;;;;;;;55.28;22.35;;;1.60;99.90;;;;;;6161290;23;20012;-84
2023/12/06 05:34:04;;;;;;;49.60;22.50;;;1.60;99.90;;;;;;6162030;23;20001;-85
2023/12/06 05:36:29;;;;;;;55.22;23.45;;;1.60;99.90;;;;;;6159588;23;20008;-85
2023/12/06 05:38:55;;;;;;;53.97;22.80;;;1.60;99.90;;;;;;6161879;23;20005;-84
2023/12/06 05:41:21;;;;;;;54.42;23.75;;;1.70;99.90;;;;;;6161189;23;20068;-84
2023/12/06 05:43:47;;;;;;;53.67;24.70;;;1.60;99.90;;;;;;6161071;23;20009;-85
2023/12/06 05:46:12;;;;;;;63.58;25.63;;;1.70;99.90;;;;;;6162688;23;20013;-85
2023/12/06 05:48:38;;;;;;;53.38;22.98;;;1.70;99.90;;;;;;6162546;23;20100;-84
2023/12/06 05:51:04;;;;;;;52.88;25.35;;;1.70;99.90;;;;;;6162946;23;20001;-85
2023/12/06 05:53:30;;;;;;;58.40;24.27;;;1.70;99.90;;;;;;6188943;23;19998;-84
2023/12/06 05:55:56;;;;;;;59.47;24.95;;;1.70;99.90;;;;;;6162376;23;20530;-85
2023/12/06 05:58:22;;;;;;;49.05;20.45;;;1.70;99.90;;;;;;6163172;23;20049;-83
2023/12/06 06:00:47;;;;;;;55.65;23.58;;;1.70;99.90;;;;;;6164139;23;20009;-84
2023/12/06 06:03:13;;;;;;;60.33;24.95;;;1.70;99.90;;;;;;6187695;23;20011;-86
2023/12/06 06:05:39;;;;;;;58.97;25.85;;;1.80;99.90;;;;;;6162299;23;20035;-85
2023/12/06 06:08:05;;;;;;;56.97;22.98;;;1.80;99.90;;;;;;6163946;23;20013;-84
2023/12/06 06:10:31;;;;;;;61.50;24.73;;;1.80;99.90;;;;;;6162614;23;20005;-84
2023/12/06 06:12:57;;;;;;;57.95;24.00;;;1.80;99.90;;;;;;6161663;23;20001;-85
2023/12/06 06:15:23;;;;;;;50.47;22.15;;;1.80;99.90;;;;;;6162535;23;20088;-85
2023/12/06 06:17:49;;;;;;;51.38;23.40;;;1.80;99.90;;;;;;6161935;23;20008;-84
2023/12/06 06:20:14;;;;;;;59.63;23.40;;;1.80;99.90;;;;;;6162390;23;20009;-85
2023/12/06 06:22:41;;;;;;;60.90;24.98;;;1.80;99.90;;;;;;6163451;23;20033;-85
2023/12/06 06:25:08;;;;;;;59.90;21.50;;;1.90;99.90;;;;;;6161393;23;20394;-85
2023/12/06 06:27:34;;;;;;;52.03;22.20;;;1.80;99.90;;;;;;6163903;23;20371;-85
2023/12/06 06:30:00;;;;;;;57.08;24.17;;;1.90;99.90;;;;;;6165766;23;20013;-85
2023/12/06 06:32:26;;;;;;;59.22;24.63;;;1.90;99.90;;;;;;6161442;23;20461;-85
2023/12/06 06:34:51;;;;;;;59.22;23.23;;;1.90;99.90;;;;;;6161071;23;20005;-85
2023/12/06 06:37:18;;;;;;;61.75;25.15;;;1.90;99.90;;;;;;6160619;23;19997;-84
2023/12/06 06:39:44;;;;;;;61.05;24.05;;;2.00;99.90;;;;;;6160290;23;20092;-85
2023/12/06 06:42:09;;;;;;;60.63;25.55;;;2.00;99.90;;;;;;6161593;23;20059;-84
2023/12/06 06:44:35;;;;;;;58.45;23.50;;;2.00;99.90;;;;;;6161319;23;20088;-85
2023/12/06 06:47:01;;;;;;;59.25;23.52;;;2.00;99.90;;;;;;6160792;23;20036;-85
2023/12/06 06:49:27;;;;;;;60.40;23.80;;;2.00;99.90;;;;;;6160599;23;20058;-85
2023/12/06 06:51:52;;;;;;;64.22;24.17;;;2.00;99.90;;;;;;6161179;23;20500;-85
2023/12/06 06:54:18;;;;;;;63.78;23.63;;;2.10;99.90;;;;;;6161884;23;20439;-85
2023/12/06 06:56:44;;;;;;;55.15;22.70;;;2.10;99.90;;;;;;6160529;23;20005;-84
2023/12/06 06:59:11;;;;;;;47.90;23.08;;;2.10;99.90;;;;;;6160604;23;20092;-85
2023/12/06 07:01:36;;;;;;;51.05;23.30;;;2.10;99.90;;;;;;6161762;23;20058;-84
2023/12/06 07:04:03;;;;;;;49.85;21.77;;;2.10;99.90;;;;;;6160852;23;20005;-85
2023/12/06 07:06:30;;;;;;;48.20;22.02;;;2.10;99.90;;;;;;6159496;23;20005;-85
2023/12/06 07:08:55;;;;;;;52.53;23.48;;;2.10;99.90;;;;;;6184612;23;20017;-84
2023/12/06 07:11:21;;;;;;;51.33;23.10;;;2.10;99.90;;;;;;6160668;23;20015;-85
2023/12/06 07:13:48;;;;;;;53.17;23.10;;;2.10;99.90;;;;;;6161683;23;20012;-84
2023/12/06 07:16:13;;;;;;;56.20;23.50;;;2.10;99.90;;;;;;6162133;23;20005;-85
2023/12/06 07:18:39;;;;;;;48.47;23.05;;;2.10;99.90;;;;;;6163067;23;20005;-84
2023/12/06 07:21:05;;;;;;;48.65;23.08;;;2.20;99.90;;;;;;6162448;23;20013;-84
2023/12/06 07:23:31;;;;;;;49.33;22.40;;;2.20;99.90;;;;;;6161095;23;20016;-83
2023/12/06 07:25:58;;;;;;;50.58;22.95;;;2.20;99.90;;;;;;6159679;23;20009;-85
2023/12/06 07:28:24;;;;;;;50.10;23.88;;;2.20;99.90;;;;;;6159719;23;20382;-86
2023/12/06 07:30:50;;;;;;;46.58;21.77;;;2.20;99.90;;;;;;6159593;23;20001;-85
2023/12/06 07:33:15;;;;;;;50.58;22.38;;;2.20;99.90;;;;;;6164361;23;20001;-85
2023/12/06 07:35:41;;;;;;;47.65;22.45;;;2.20;99.90;;;;;;6163737;23;20339;-85
2023/12/06 07:38:09;;;;;;;52.13;23.27;;;2.20;99.90;;;;;;6163276;23;20009;-85
2023/12/06 07:40:35;;;;;;;47.47;22.63;;;2.20;99.90;;;;;;6162673;23;20005;-85
2023/12/06 07:43:01;;;;;;;46.20;22.90;;;2.20;99.90;;;;;;6189737;23;20013;-85
2023/12/06 07:45:27;;;;;;;55.25;22.77;;;2.20;99.90;;;;;;6190235;23;20016;-85
2023/12/06 07:47:53;;;;;;;47.22;21.42;;;2.30;99.90;;;;;;6164529;23;20009;-85
2023/12/06 07:50:20;;;;;;;51.05;22.85;;;2.30;99.90;;;;;;6172608;23;20013;-85
2023/12/06 07:52:47;;;;;;;49.83;23.70;;;2.30;99.90;;;;;;6161076;23;20032;-85
2023/12/06 07:55:14;;;;;;;53.45;23.90;;;2.30;99.90;;;;;;6161225;23;20068;-84
2023/12/06 07:57:40;;;;;;;56.38;23.25;;;2.30;99.90;;;;;;6161429;23;20005;-84
2023/12/06 08:00:07;;;;;;;48.00;23.63;;;2.30;99.90;;;;;;6160919;23;20507;-85
2023/12/06 08:02:35;;;;;;;50.17;24.10;;;2.30;99.90;;;;;;6160682;23;20000;-85
2023/12/06 08:05:02;;;;;;;51.78;22.58;;;2.40;99.90;;;;;;6160988;23;20074;-84
2023/12/06 08:07:28;;;;;;;52.72;22.77;;;2.40;99.90;;;;;;6160764;23;20005;-85
2023/12/06 08:09:54;;;;;;;53.35;24.40;;;2.40;99.90;;;;;;6160186;23;20016;-85
2023/12/06 08:12:20;;;;;;;51.40;24.90;;;2.40;99.90;;;;;;6161021;23;20001;-85
2023/12/06 08:14:46;;;;;;;52.33;23.25;;;2.40;99.90;;;;;;6161727;23;20036;-84
2023/12/06 08:17:11;;;;;;;53.53;25.95;;;2.40;99.90;;;;;;6160966;23;20013;-84
2023/12/06 08:19:37;;;;;;;54.42;25.70;;;2.40;99.90;;;;;;6160922;23;20075;-85
2023/12/06 08:22:03;;;;;;;56.17;24.52;;;2.40;99.90;;;;;;6160815;23;20789;-84
2023/12/06 08:24:29;;;;;;;53.42;24.35;;;2.50;99.90;;;;;;6187761;23;20028;-85
2023/12/06 08:26:54;;;;;;;51.97;25.25;;;2.50;99.90;;;;;;6161017;23;20013;-85
2023/12/06 08:29:20;;;;;;;51.75;23.98;;;2.50;99.90;;;;;;6161086;23;20115;-86
2023/12/06 08:31:46;;;;;;;52.85;23.33;;;2.50;99.90;;;;;;6160077;23;20032;-84
2023/12/06 08:34:11;;;;;;;49.80;23.33;;;2.60;99.90;;;;;;6160567;23;20005;-85
2023/12/06 08:36:37;;;;;;;57.75;23.58;;;2.60;99.90;;;;;;6159911;23;20080;-86
2023/12/06 08:39:03;;;;;;;50.83;23.88;;;2.60;99.90;;;;;;6160504;23;20013;-87
2023/12/06 08:41:29;;;;;;;49.90;25.48;;;2.60;99.90;;;;;;6162518;23;20005;-87
2023/12/06 08:43:55;;;;;;;48.13;23.70;;;2.60;99.90;;;;;;6158978;23;20066;-86
2023/12/06 08:46:22;;;;;;;51.40;23.08;;;2.70;99.90;;;;;;6159370;23;20027;-85
2023/12/06 08:48:48;;;;;;;52.22;22.90;;;2.70;99.90;;;;;;6159541;23;20408;-87
2023/12/06 08:51:13;;;;;;;44.60;21.00;;;2.70;99.90;;;;;;6159487;23;20005;-85
2023/12/06 08:53:39;;;;;;;48.40;22.38;;;2.70;99.90;;;;;;6160751;23;20005;-86
2023/12/06 08:56:05;;;;;;;49.00;23.75;;;2.80;99.90;;;;;;6159870;23;20115;-86
2023/12/06 08:58:31;;;;;;;49.42;22.50;;;2.80;99.90;;;;;;6160857;23;20009;-85
2023/12/06 09:00:57;;;;;;;46.95;21.75;;;2.80;99.90;;;;;;6160272;23;20032;-86
2023/12/06 09:03:23;;;;;;;40.13;20.30;;;2.80;99.90;;;;;;6160810;23;20035;-86
2023/12/06 09:05:48;;;;;;;43.90;23.98;;;2.80;99.90;;;;;;6159857;23;20005;-86
2023/12/06 09:08:15;;;;;;;50.47;22.70;;;2.80;99.90;;;;;;6159168;23;20020;-86
2023/12/06 09:10:41;;;;;;;43.80;21.67;;;2.90;99.90;;;;;;6160027;23;20001;-86
2023/12/06 09:13:07;;;;;;;45.70;21.95;;;2.90;99.90;;;;;;6160120;23;20388;-86
2023/12/06 09:15:32;;;;;;;46.22;22.83;;;2.90;99.90;;;;;;6160110;23;20013;-86
2023/12/06 09:17:59;;;;;;;46.08;22.42;;;2.90;99.90;;;;;;6159633;23;20058;-86
2023/12/06 09:20:24;;;;;;;43.33;20.98;;;2.90;99.90;;;;;;6160368;23;20041;-86
2023/12/06 09:22:50;;;;;;;39.80;20.35;;;3.00;99.90;;;;;;6161443;23;20001;-86
2023/12/06 09:25:16;;;;;;;41.90;19.30;;;3.00;99.90;;;;;;6161900;23;20032;-87
2023/12/06 09:27:42;;;;;;;42.95;21.55;;;3.00;99.90;;;;;;6162310;23;20025;-86
2023/12/06 09:30:08;;;;;;;39.65;20.83;;;3.00;99.90;;;;;;6160991;23;20009;-86
2023/12/06 09:32:34;;;;;;;37.72;20.00;;;3.10;99.90;;;;;;6161283;23;20031;-86
2023/12/06 09:35:00;;;;;;;38.05;20.23;;;3.10;99.90;;;;;;6161461;23;20012;-86
2023/12/06 09:37:26;;;;;;;43.30;21.75;;;3.00;99.90;;;;;;6161349;23;20183;-86
2023/12/06 09:39:53;;;;;;;37.35;18.90;;;3.00;99.90;;;;;;6161916;23;20009;-86
2023/12/06 09:42:19;;;;;;;41.50;19.63;;;3.00;99.90;;;;;;6162092;23;20093;-87
2023/12/06 09:44:45;;;;;;;40.80;22.02;;;3.10;99.90;;;;;;6162011;23;20448;-86
2023/12/06 09:47:12;;;;;;;40.55;22.27;;;3.10;99.90;;;;;;6161680;23;20019;-87
2023/12/06 09:49:37;;;;;;;42.45;22.10;;;3.10;99.90;;;;;;6162437;23;20043;-86
2023/12/06 09:52:17;;;;;;;46.35;23.75;;;3.10;99.90;;;;;;6161655;23;20005;-86
2023/12/06 09:54:44;;;;;;;42.88;21.55;;;3.20;99.90;;;;;;6162177;23;20059;-86
2023/12/06 09:57:11;;;;;;;42.30;20.40;;;3.20;99.90;;;;;;6161886;23;20001;-86
2023/12/06 09:59:38;;;;;;;43.35;21.08;;;3.30;99.90;;;;;;6162007;22;20013;-85
2023/12/06 10:02:04;;;;;;;43.38;22.40;;;3.30;99.90;;;;;;6162359;23;20435;-85
2023/12/06 10:04:29;;;;;;;41.30;22.17;;;3.30;99.90;;;;;;6162751;23;20066;-86
2023/12/06 10:06:57;;;;;;;43.95;21.33;;;3.30;99.90;;;;;;6161545;23;20020;-86
2023/12/06 10:09:22;;;;;;;42.65;22.60;;;3.40;99.90;;;;;;6160561;23;20005;-87
2023/12/06 10:11:48;;;;;;;48.28;23.05;;;3.30;99.90;;;;;;6160009;23;20308;-86
2023/12/06 10:14:21;;;;;;;42.40;21.70;;;3.30;99.90;;;;;;6160394;23;20005;-86
2023/12/06 10:16:47;;;;;;;40.10;21.27;;;3.40;99.90;;;;;;6160727;23;20064;-85
2023/12/06 10:19:22;;;;;;;39.83;21.30;;;3.50;99.90;;;;;;6159450;23;20061;-86
2023/12/06 10:21:50;;;;;;;41.97;21.60;;;3.40;99.90;;;;;;6159607;23;20013;-86
2023/12/06 10:24:15;;;;;;;42.20;23.17;;;3.50;99.90;;;;;;6162332;23;20016;-86
2023/12/06 10:26:41;;;;;;;38.40;21.60;;;3.50;99.90;;;;;;6160228;23;20412;-86
2023/12/06 10:29:08;;;;;;;36.85;19.48;;;3.60;99.90;;;;;;6160640;23;20084;-86
2023/12/06 10:31:38;;;;;;;38.80;21.02;;;3.60;99.90;;;;;;6161036;23;20001;-88
2023/12/06 10:34:06;;;;;;;38.25;22.35;;;3.60;99.90;;;;;;6160414;23;20001;-85
2023/12/06 10:36:32;;;;;;;35.22;21.00;;;3.60;99.90;;;;;;6159659;23;20020;-84
2023/12/06 10:38:59;;;;;;;37.90;20.77;;;3.60;99.90;;;;;;6159513;23;20088;-84
2023/12/06 10:41:31;;;;;;;35.15;19.42;;;3.70;99.90;;;;;;6158928;23;20040;-85
2023/12/06 10:43:59;;;;;;;37.78;20.33;;;3.70;99.90;;;;;;6159460;23;20009;-84
2023/12/06 10:46:27;;;;;;;36.60;20.73;;;3.70;99.90;;;;;;6159880;22;20005;-85
2023/12/06 10:48:59;;;;;;;38.97;20.50;;;3.70;99.90;;;;;;6159129;23;20009;-84
2023/12/06 10:51:25;;;;;;;40.25;21.65;;;3.80;99.90;;;;;;6159464;23;20001;-84
2023/12/06 10:53:52;;;;;;;39.17;21.20;;;3.80;99.90;;;;;;6184396;23;20024;-85
2023/12/06 10:56:19;;;;;;;38.28;20.92;;;3.90;99.90;;;;;;6159900;23;20005;-84
2023/12/06 10:58:47;;;;;;;34.85;18.60;;;3.90;99.90;;;;;;6159516;23;20009;-84
2023/12/06 11:01:13;;;;;;;35.72;20.23;;;3.90;99.90;;;;;;6159066;23;20018;-85
2023/12/06 11:03:40;;;;;;;35.85;20.20;;;4.10;99.90;;;;;;6160141;23;20013;-84
2023/12/06 11:06:18;;;;;;;36.05;20.50;;;4.10;99.90;;;;;;6160035;23;20020;-84
2023/12/06 11:09:06;;;;;;;39.55;20.48;;;4.10;99.90;;;;;;6159383;23;20091;-84
2023/12/06 11:12:00;;;;;;;35.33;20.55;;;4.00;99.90;;;;;;6159865;23;20016;-82
2023/12/06 11:14:46;;;;;;;37.88;19.55;;;4.00;99.90;;;;;;6159594;23;20009;-86
2023/12/06 11:17:25;;;;;;;32.70;18.58;;;4.10;99.90;;;;;;6159002;23;20029;-83
2023/12/06 11:19:51;;;;;;;34.92;18.50;;;4.00;99.90;;;;;;6184862;23;20008;-83
2023/12/06 11:22:17;;;;;;;35.10;18.08;;;4.00;99.90;;;;;;6158302;23;20009;-85
2023/12/06 11:24:44;;;;;;;37.13;21.00;;;4.00;99.90;;;;;;6159864;23;20012;-85
2023/12/06 11:27:11;;;;;;;35.88;17.90;;;4.00;99.90;;;;;;6158971;23;20074;-85
2023/12/06 11:29:37;;;;;;;28.77;18.40;;;4.00;99.90;;;;;;6158706;23;20013;-84
2023/12/06 11:32:03;;;;;;;36.85;17.73;;;4.00;99.90;;;;;;6159789;23;20008;-84
2023/12/06 11:34:37;;;;;;;32.83;18.20;;;4.10;99.90;;;;;;6159270;23;20001;-85
2023/12/06 11:37:07;;;;;;;33.65;18.70;;;4.10;99.90;;;;;;6158741;23;20008;-84
2023/12/06 11:39:33;;;;;;;34.92;19.23;;;4.10;99.90;;;;;;6159181;23;20005;-84
2023/12/06 11:41:59;;;;;;;37.08;17.92;;;4.20;99.90;;;;;;6158951;23;20017;-84
2023/12/06 11:44:25;;;;;;;34.15;17.70;;;4.10;99.90;;;;;;6158381;23;20015;-84
2023/12/06 11:46:52;;;;;;;35.72;18.33;;;4.20;99.90;;;;;;6159298;23;20005;-85
2023/12/06 11:49:23;;;;;;;37.45;20.50;;;4.10;99.90;;;;;;6169967;22;20013;-85
2023/12/06 11:52:10;;;;;;;39.22;19.10;;;4.10;99.90;;;;;;6160021;23;19997;-85
2023/12/06 11:54:44;;;;;;;36.97;19.13;;;4.10;99.90;;;;;;6161968;23;20020;-86
2023/12/06 11:57:11;;;;;;;37.30;18.23;;;4.20;99.90;;;;;;6161037;23;19997;-85
2023/12/06 11:59:39;;;;;;;36.67;19.02;;;4.20;99.90;;;;;;6161392;23;20031;-85
2023/12/06 12:02:06;;;;;;;39.38;20.45;;;4.30;99.90;;;;;;6163461;23;20009;-85
2023/12/06 12:04:34;;;;;;;32.30;17.95;;;4.20;99.90;;;;;;6185486;23;20017;-85
2023/12/06 12:07:00;;;;;;;36.65;18.38;;;4.20;99.90;;;;;;6161048;23;20031;-85
2023/12/06 12:09:29;;;;;;;37.08;19.38;;;4.20;99.90;;;;;;6163073;22;20015;-85
2023/12/06 12:11:55;;;;;;;39.40;20.08;;;4.20;99.90;;;;;;6163255;23;20005;-85
2023/12/06 12:14:20;;;;;;;34.15;18.27;;;4.20;99.90;;;;;;6162624;23;20082;-86
2023/12/06 12:16:46;;;;;;;36.92;19.55;;;4.20;99.90;;;;;;6162539;23;20009;-86
2023/12/06 12:19:13;;;;;;;35.63;19.58;;;4.20;99.90;;;;;;6161315;23;20086;-84
2023/12/06 12:21:39;;;;;;;32.42;17.27;;;4.20;99.90;;;;;;6162846;23;20028;-85
2023/12/06 12:24:06;;;;;;;36.80;17.77;;;4.20;99.90;;;;;;6160957;23;20447;-85
2023/12/06 12:26:31;;;;;;;45.33;19.38;;;4.30;99.90;;;;;;6161128;23;20024;-86
2023/12/06 12:28:58;;;;;;;36.53;17.67;;;4.30;99.90;;;;;;6161362;23;20005;-86
2023/12/06 12:31:28;;;;;;;30.77;16.67;;;4.30;99.90;;;;;;6160823;23;20439;-85
2023/12/06 12:33:55;;;;;;;27.13;15.15;;;4.30;99.90;;;;;;6160763;23;20001;-85